JP Observations

RJAA 182100Z 36009KT 2800 -RA BR FEW002 BKN003 11/11 Q1013 NOSIG RMK 2ST002 7ST003 A2993 RJAH 182100Z 34007KT 4000 -SHRA BR FEW002 SCT003 BKN006 10/10 Q1013 RJAW 182100Z 08002KT 9999 FEW020 23/19 Q1014 RMK 2CU020 A2996 RJBB 182100Z 33011KT 9999 -SHRA FEW015 SCT030 BKN040 15/09 Q1016 NOSIG RJCC 182100Z VRB01KT 9999 FEW030 SCT100 BKN120 02/M02 Q1014 RJCC 182100Z VRB01KT 9999 FEW030 SCT100 BKN120 02/M02 Q1014 RMK 1CU030 4AC100 7AC120 A2996 RJFF 182100Z VRB02KT 9999 FEW040 SCT060 BKN150 11/09 Q1018 NOSIG RMK 1CU040 4SC060 7AC150 A3006 RJFK 182100Z 01004KT 8000 -SHRA FEW008 SCT040 BKN080 10/10 Q1016 RJFK 182100Z 01004KT 8000 -SHRA FEW008 SCT040 BKN080 10/10 Q1016 RMK 1ST008 4CU040 6AC080 A3000 RJFR 182100Z 28004KT 9999 FEW030 SCT050 BKN160 13/09 Q1017 RJFS 182100Z 35001KT 9999 FEW030 BKN050 11/10 Q1017 RJGG 182100Z 34011KT 9999 -RA FEW030 BKN060 14/08 Q1015 NOSIG RJNK 182100Z 31010KT 9999 -SHRA FEW015 BKN020 BKN030 12/08 Q1017 RJOH 182100Z 24005KT 9999 FEW003 SCT020 BKN040 11/09 Q1018 RJOI 182055Z 31005KT 9999 FEW030 BKN050 OVC090 12/09 A3005 RMK SLP174 60000 T01220089 5//// RJOO 182100Z 08003KT 030V110 9999 -RA FEW030 BKN050 13/10 Q1016 RJOO 182100Z 08003KT 030V110 9999 -RA FEW030 BKN050 13/10 Q1016 RMK 1CU030 6SC050 A3002 RJSS 182100Z 35003KT 9999 -SHRA FEW010 SCT020 BKN030 07/06 Q1015 RJTT 182100Z 01012KT 9999 FEW010 BKN015 13/10 Q1013 NOSIG RJTT 182100Z 01012KT 9999 FEW010 BKN015 13/10 Q1013 NOSIG RMK 1ST010 7SC015 A2993 RJTY 182056Z AUTO 03003KT 10SM OVC023 11/08 A2998 RMK AO2 OVC V BKN CIG 021 RWY18 SLP157 T01120082 55008 FZRANO $ ROAH 182100Z 30004KT 270V350 3000 +SHRA FEW008 SCT010 BKN015 SCT025CB 23/22 Q1013 ROAH 182100Z 30004KT 270V350 3000 +SHRA FEW008 SCT010 BKN015 SCT025CB 23/22 Q1013 RMK 1ST008 3CU010 5CU015 3CB025 A2994 CB OHD MOV NE RODN 182056Z 00000KT 8SM SCT008 23/22 A2994 RMK AO2A SLP145 T02270215 53004 PWINO $ ROIG 182100Z 35007KT 310V030 4000 R04/1600D +SHRA FEW004 BKN012 FEW020TCU BKN040 22/22 Q1015 ROYN 182100Z AUTO 35023KT 9999 FEW013 SCT015 BKN023 24/21 Q1015 ROTM 182103Z 22003KT 7SM -RA BKN006 BKN011 OVC017 22/22 A2996 RMK AO2 P0000 T02170217 $